イルクーツク の空港の天気 - METARとTAF

イルクーツク国際空港 ( UIII / IKT ) - ロシア イルクーツク
飛行場実況気象(Metar)
観測時間01/21 01:30 +08 (01/20 17:30 UTC)
風向・風速東 2m/s
視程10km以上
天気現象
全天の4割程度の雲 雲底高度 240m
気温-27℃
湿度83%
気圧1032hPa
METARUIII 201730Z 10002MPS 9999 SCT008 M27/M29 Q1032 R12/820350 NOSIG RMK QBB250 QFE731/0975
過去の天気等 Google飛行場航空写真 Wunderground天気予報

過去48時間のMETAR

飛行場予報(TAF)
発表時間: 1/21 01:00 +08 (1/20 17:00 UTC)
予報対象時間: 21日2時 +08 ~ 22日2時 +08
風向・風速不定 1m/s
視程1,500m
天気現象もや 煙
全天の8割程度の雲 雲底高度 90m
21日2時 +08 ~ 21日11時 +08 に一時的に
視程300m
天気現象氷霧
全天を覆う雲 鉛直視程 30m
21日11時 +08 ~ 21日12時 +08 に徐々に
視程10km以上
天気現象運行に影響にある天気現象が終了
なし
21日12時 +08 ~ 21日13時 +08 に徐々に
風向・風速南南東 6m/s
TAF UIII 201700Z 2018/2118 VRB01MPS 1500 BR FU BKN003
TEMPO 2018/2103 0300 FZFG VV001
BECMG 2103/2104 9999 NSW NSC
BECMG 2104/2105 15006MPS